sensor_id;sensor_type;location;lat;lon;timestamp;P1;durP1;ratioP1;P2;durP2;ratioP2
44480;SDS011;30184;42.018;23.670;2022-10-10T00:01:37;16.10;;;8.50;;
44480;SDS011;30184;42.018;23.670;2022-10-10T00:04:07;18.13;;;7.90;;
44480;SDS011;30184;42.018;23.670;2022-10-10T00:06:36;23.50;;;12.80;;
44480;SDS011;30184;42.018;23.670;2022-10-10T00:09:06;28.88;;;13.57;;
44480;SDS011;30184;42.018;23.670;2022-10-10T00:11:35;22.70;;;10.82;;
44480;SDS011;30184;42.018;23.670;2022-10-10T00:14:05;12.15;;;8.25;;
44480;SDS011;30184;42.018;23.670;2022-10-10T00:16:47;14.68;;;8.15;;
44480;SDS011;30184;42.018;23.670;2022-10-10T00:19:16;18.50;;;8.05;;
44480;SDS011;30184;42.018;23.670;2022-10-10T00:21:46;22.02;;;8.27;;
44480;SDS011;30184;42.018;23.670;2022-10-10T00:24:18;16.10;;;8.20;;
44480;SDS011;30184;42.018;23.670;2022-10-10T00:26:48;14.27;;;9.30;;
44480;SDS011;30184;42.018;23.670;2022-10-10T00:29:17;22.55;;;12.43;;
44480;SDS011;30184;42.018;23.670;2022-10-10T00:31:48;16.70;;;7.45;;
44480;SDS011;30184;42.018;23.670;2022-10-10T00:34:17;12.68;;;9.02;;
44480;SDS011;30184;42.018;23.670;2022-10-10T00:36:47;16.23;;;9.52;;
44480;SDS011;30184;42.018;23.670;2022-10-10T00:39:16;10.65;;;8.15;;
44480;SDS011;30184;42.018;23.670;2022-10-10T00:41:45;15.98;;;8.13;;
44480;SDS011;30184;42.018;23.670;2022-10-10T00:44:15;22.35;;;9.40;;
44480;SDS011;30184;42.018;23.670;2022-10-10T00:46:45;17.05;;;9.30;;
44480;SDS011;30184;42.018;23.670;2022-10-10T00:49:16;15.77;;;8.63;;
44480;SDS011;30184;42.018;23.670;2022-10-10T00:51:49;15.48;;;9.65;;
44480;SDS011;30184;42.018;23.670;2022-10-10T00:54:21;16.52;;;9.20;;
44480;SDS011;30184;42.018;23.670;2022-10-10T00:56:54;15.82;;;9.40;;
44480;SDS011;30184;42.018;23.670;2022-10-10T00:59:26;22.98;;;13.00;;
44480;SDS011;30184;42.018;23.670;2022-10-10T01:02:01;26.00;;;13.43;;
44480;SDS011;30184;42.018;23.670;2022-10-10T01:04:34;16.08;;;9.55;;
44480;SDS011;30184;42.018;23.670;2022-10-10T01:07:09;13.88;;;8.10;;
44480;SDS011;30184;42.018;23.670;2022-10-10T01:09:42;16.33;;;8.07;;
44480;SDS011;30184;42.018;23.670;2022-10-10T01:12:15;17.02;;;8.73;;
44480;SDS011;30184;42.018;23.670;2022-10-10T01:14:53;14.40;;;9.80;;
44480;SDS011;30184;42.018;23.670;2022-10-10T01:17:31;14.15;;;7.90;;
44480;SDS011;30184;42.018;23.670;2022-10-10T01:20:11;12.30;;;8.38;;
44480;SDS011;30184;42.018;23.670;2022-10-10T01:22:56;22.67;;;14.60;;
44480;SDS011;30184;42.018;23.670;2022-10-10T01:25:43;20.15;;;12.05;;
44480;SDS011;30184;42.018;23.670;2022-10-10T01:28:32;20.17;;;12.25;;
44480;SDS011;30184;42.018;23.670;2022-10-10T01:31:06;14.05;;;9.52;;
44480;SDS011;30184;42.018;23.670;2022-10-10T01:33:42;17.42;;;11.00;;
44480;SDS011;30184;42.018;23.670;2022-10-10T01:36:20;18.17;;;9.38;;
44480;SDS011;30184;42.018;23.670;2022-10-10T01:38:55;13.55;;;7.60;;
44480;SDS011;30184;42.018;23.670;2022-10-10T01:41:30;14.27;;;7.93;;
44480;SDS011;30184;42.018;23.670;2022-10-10T01:44:06;12.63;;;7.22;;
44480;SDS011;30184;42.018;23.670;2022-10-10T01:46:35;16.85;;;9.35;;
44480;SDS011;30184;42.018;23.670;2022-10-10T01:49:05;14.85;;;10.00;;
44480;SDS011;30184;42.018;23.670;2022-10-10T01:51:39;14.40;;;8.95;;
44480;SDS011;30184;42.018;23.670;2022-10-10T01:54:26;14.15;;;9.20;;
44480;SDS011;30184;42.018;23.670;2022-10-10T01:57:09;14.00;;;9.00;;
44480;SDS011;30184;42.018;23.670;2022-10-10T01:59:52;25.45;;;9.70;;
44480;SDS011;30184;42.018;23.670;2022-10-10T02:02:37;16.95;;;9.27;;
44480;SDS011;30184;42.018;23.670;2022-10-10T02:05:14;15.10;;;9.07;;
44480;SDS011;30184;42.018;23.670;2022-10-10T02:07:51;22.73;;;11.75;;
44480;SDS011;30184;42.018;23.670;2022-10-10T02:10:25;19.52;;;9.00;;
44480;SDS011;30184;42.018;23.670;2022-10-10T02:12:59;17.05;;;8.02;;
44480;SDS011;30184;42.018;23.670;2022-10-10T02:15:33;15.13;;;8.18;;
44480;SDS011;30184;42.018;23.670;2022-10-10T02:18:08;13.82;;;8.10;;
44480;SDS011;30184;42.018;23.670;2022-10-10T02:20:41;15.85;;;7.65;;
44480;SDS011;30184;42.018;23.670;2022-10-10T02:23:13;15.40;;;8.95;;
44480;SDS011;30184;42.018;23.670;2022-10-10T02:25:46;18.70;;;8.38;;
44480;SDS011;30184;42.018;23.670;2022-10-10T02:28:20;13.88;;;8.38;;
44480;SDS011;30184;42.018;23.670;2022-10-10T02:30:55;14.00;;;7.90;;
44480;SDS011;30184;42.018;23.670;2022-10-10T02:33:30;12.95;;;8.20;;
44480;SDS011;30184;42.018;23.670;2022-10-10T02:36:07;15.02;;;8.88;;
44480;SDS011;30184;42.018;23.670;2022-10-10T02:38:37;13.95;;;8.75;;
44480;SDS011;30184;42.018;23.670;2022-10-10T02:41:10;13.10;;;9.43;;
44480;SDS011;30184;42.018;23.670;2022-10-10T02:43:42;13.02;;;7.93;;
44480;SDS011;30184;42.018;23.670;2022-10-10T02:46:14;13.00;;;7.60;;
44480;SDS011;30184;42.018;23.670;2022-10-10T02:48:44;14.23;;;8.45;;
44480;SDS011;30184;42.018;23.670;2022-10-10T02:51:14;12.95;;;8.13;;
44480;SDS011;30184;42.018;23.670;2022-10-10T02:53:45;13.60;;;8.40;;
44480;SDS011;30184;42.018;23.670;2022-10-10T02:56:15;18.17;;;10.35;;
44480;SDS011;30184;42.018;23.670;2022-10-10T02:58:44;19.00;;;10.43;;
44480;SDS011;30184;42.018;23.670;2022-10-10T03:01:18;14.10;;;8.63;;
44480;SDS011;30184;42.018;23.670;2022-10-10T03:03:48;12.25;;;8.73;;
44480;SDS011;30184;42.018;23.670;2022-10-10T03:06:18;15.02;;;9.05;;
44480;SDS011;30184;42.018;23.670;2022-10-10T03:08:47;35.25;;;8.80;;
44480;SDS011;30184;42.018;23.670;2022-10-10T03:11:17;12.20;;;8.40;;
44480;SDS011;30184;42.018;23.670;2022-10-10T03:13:46;12.13;;;8.38;;
44480;SDS011;30184;42.018;23.670;2022-10-10T03:16:15;17.27;;;9.43;;
44480;SDS011;30184;42.018;23.670;2022-10-10T03:18:46;50.08;;;23.50;;
44480;SDS011;30184;42.018;23.670;2022-10-10T03:21:15;24.35;;;13.93;;
44480;SDS011;30184;42.018;23.670;2022-10-10T03:23:45;16.15;;;10.80;;
44480;SDS011;30184;42.018;23.670;2022-10-10T03:26:14;33.53;;;12.80;;
44480;SDS011;30184;42.018;23.670;2022-10-10T03:28:44;16.45;;;11.68;;
44480;SDS011;30184;42.018;23.670;2022-10-10T03:31:13;15.35;;;11.02;;
44480;SDS011;30184;42.018;23.670;2022-10-10T03:33:43;16.52;;;10.95;;
44480;SDS011;30184;42.018;23.670;2022-10-10T03:36:14;15.00;;;9.00;;
44480;SDS011;30184;42.018;23.670;2022-10-10T03:38:43;19.13;;;10.23;;
44480;SDS011;30184;42.018;23.670;2022-10-10T03:41:13;13.75;;;9.68;;
44480;SDS011;30184;42.018;23.670;2022-10-10T03:43:42;18.73;;;10.82;;
44480;SDS011;30184;42.018;23.670;2022-10-10T03:46:11;18.58;;;11.90;;
44480;SDS011;30184;42.018;23.670;2022-10-10T03:48:42;18.63;;;11.70;;
44480;SDS011;30184;42.018;23.670;2022-10-10T03:51:13;15.88;;;11.90;;
44480;SDS011;30184;42.018;23.670;2022-10-10T03:53:43;15.60;;;10.95;;
44480;SDS011;30184;42.018;23.670;2022-10-10T03:56:13;16.65;;;12.13;;
44480;SDS011;30184;42.018;23.670;2022-10-10T03:58:42;30.98;;;15.75;;
44480;SDS011;30184;42.018;23.670;2022-10-10T04:01:11;37.58;;;27.30;;
44480;SDS011;30184;42.018;23.670;2022-10-10T04:03:41;27.60;;;21.15;;
44480;SDS011;30184;42.018;23.670;2022-10-10T04:06:18;21.33;;;15.60;;
44480;SDS011;30184;42.018;23.670;2022-10-10T04:17:32;28.33;;;21.88;;
44480;SDS011;30184;42.018;23.670;2022-10-10T04:20:01;33.05;;;24.52;;
44480;SDS011;30184;42.018;23.670;2022-10-10T04:22:32;41.72;;;26.05;;
44480;SDS011;30184;42.018;23.670;2022-10-10T04:25:02;22.10;;;14.07;;
44480;SDS011;30184;42.018;23.670;2022-10-10T04:27:32;25.80;;;16.75;;
44480;SDS011;30184;42.018;23.670;2022-10-10T04:30:01;37.17;;;19.25;;
44480;SDS011;30184;42.018;23.670;2022-10-10T04:32:30;41.92;;;22.52;;
44480;SDS011;30184;42.018;23.670;2022-10-10T04:34:59;33.95;;;19.55;;
44480;SDS011;30184;42.018;23.670;2022-10-10T04:37:29;32.72;;;16.40;;
44480;SDS011;30184;42.018;23.670;2022-10-10T04:40:00;32.97;;;23.10;;
44480;SDS011;30184;42.018;23.670;2022-10-10T04:42:29;48.85;;;37.65;;
44480;SDS011;30184;42.018;23.670;2022-10-10T04:44:58;43.15;;;27.58;;
44480;SDS011;30184;42.018;23.670;2022-10-10T04:47:27;37.05;;;26.63;;
44480;SDS011;30184;42.018;23.670;2022-10-10T04:49:57;30.10;;;16.60;;
44480;SDS011;30184;42.018;23.670;2022-10-10T04:52:26;22.95;;;15.00;;
44480;SDS011;30184;42.018;23.670;2022-10-10T04:54:55;28.30;;;16.90;;
44480;SDS011;30184;42.018;23.670;2022-10-10T04:57:26;31.38;;;19.83;;
44480;SDS011;30184;42.018;23.670;2022-10-10T04:59:55;34.13;;;19.48;;
44480;SDS011;30184;42.018;23.670;2022-10-10T05:02:24;44.72;;;22.85;;
44480;SDS011;30184;42.018;23.670;2022-10-10T05:04:53;40.60;;;23.48;;
44480;SDS011;30184;42.018;23.670;2022-10-10T05:07:23;68.93;;;30.30;;
44480;SDS011;30184;42.018;23.670;2022-10-10T05:09:52;56.33;;;27.33;;
44480;SDS011;30184;42.018;23.670;2022-10-10T05:12:21;61.70;;;27.65;;
44480;SDS011;30184;42.018;23.670;2022-10-10T05:14:52;65.85;;;32.22;;
44480;SDS011;30184;42.018;23.670;2022-10-10T05:17:21;35.88;;;21.30;;
44480;SDS011;30184;42.018;23.670;2022-10-10T05:19:50;58.20;;;32.03;;
44480;SDS011;30184;42.018;23.670;2022-10-10T05:22:20;43.78;;;24.85;;
44480;SDS011;30184;42.018;23.670;2022-10-10T05:24:49;50.67;;;29.00;;
44480;SDS011;30184;42.018;23.670;2022-10-10T05:27:18;44.75;;;29.00;;
44480;SDS011;30184;42.018;23.670;2022-10-10T05:29:47;43.70;;;27.58;;
44480;SDS011;30184;42.018;23.670;2022-10-10T05:32:18;33.78;;;23.70;;
44480;SDS011;30184;42.018;23.670;2022-10-10T05:34:47;68.18;;;32.50;;
44480;SDS011;30184;42.018;23.670;2022-10-10T05:37:17;87.05;;;42.72;;
44480;SDS011;30184;42.018;23.670;2022-10-10T05:39:46;46.70;;;25.80;;
44480;SDS011;30184;42.018;23.670;2022-10-10T05:42:18;49.45;;;24.15;;
44480;SDS011;30184;42.018;23.670;2022-10-10T05:44:47;50.75;;;28.02;;
44480;SDS011;30184;42.018;23.670;2022-10-10T05:47:18;54.17;;;32.38;;
44480;SDS011;30184;42.018;23.670;2022-10-10T06:20:07;45.17;;;27.58;;
44480;SDS011;30184;42.018;23.670;2022-10-10T06:22:37;27.25;;;17.75;;
44480;SDS011;30184;42.018;23.670;2022-10-10T06:25:06;24.63;;;16.95;;
44480;SDS011;30184;42.018;23.670;2022-10-10T06:27:45;22.67;;;15.07;;
44480;SDS011;30184;42.018;23.670;2022-10-10T06:30:14;22.58;;;12.60;;
44480;SDS011;30184;42.018;23.670;2022-10-10T06:32:44;56.83;;;14.80;;
44480;SDS011;30184;42.018;23.670;2022-10-10T06:35:16;14.48;;;10.55;;
44480;SDS011;30184;42.018;23.670;2022-10-10T06:37:48;20.48;;;10.63;;
44480;SDS011;30184;42.018;23.670;2022-10-10T06:40:21;43.50;;;13.10;;
44480;SDS011;30184;42.018;23.670;2022-10-10T06:42:53;20.83;;;10.45;;
44480;SDS011;30184;42.018;23.670;2022-10-10T06:45:26;22.23;;;13.02;;
44480;SDS011;30184;42.018;23.670;2022-10-10T06:47:56;25.08;;;13.48;;
44480;SDS011;30184;42.018;23.670;2022-10-10T06:50:27;24.17;;;12.77;;
44480;SDS011;30184;42.018;23.670;2022-10-10T06:53:03;28.98;;;16.20;;
44480;SDS011;30184;42.018;23.670;2022-10-10T06:55:37;42.30;;;17.67;;
44480;SDS011;30184;42.018;23.670;2022-10-10T07:00:50;40.55;;;22.10;;
44480;SDS011;30184;42.018;23.670;2022-10-10T07:03:21;42.15;;;22.95;;
44480;SDS011;30184;42.018;23.670;2022-10-10T07:05:55;34.08;;;18.92;;
44480;SDS011;30184;42.018;23.670;2022-10-10T07:08:29;42.65;;;23.08;;
44480;SDS011;30184;42.018;23.670;2022-10-10T07:11:06;42.13;;;22.90;;
44480;SDS011;30184;42.018;23.670;2022-10-10T07:13:40;29.42;;;17.60;;
44480;SDS011;30184;42.018;23.670;2022-10-10T07:16:19;32.97;;;15.68;;
44480;SDS011;30184;42.018;23.670;2022-10-10T07:18:55;22.40;;;15.20;;
44480;SDS011;30184;42.018;23.670;2022-10-10T07:21:38;34.47;;;22.73;;
44480;SDS011;30184;42.018;23.670;2022-10-10T07:24:13;22.83;;;15.20;;
44480;SDS011;30184;42.018;23.670;2022-10-10T07:27:09;27.80;;;13.07;;
44480;SDS011;30184;42.018;23.670;2022-10-10T07:29:47;22.23;;;13.30;;
44480;SDS011;30184;42.018;23.670;2022-10-10T07:32:31;19.88;;;11.95;;
44480;SDS011;30184;42.018;23.670;2022-10-10T07:35:24;17.17;;;10.77;;
44480;SDS011;30184;42.018;23.670;2022-10-10T07:38:15;21.10;;;10.70;;
44480;SDS011;30184;42.018;23.670;2022-10-10T07:40:50;19.05;;;9.18;;
44480;SDS011;30184;42.018;23.670;2022-10-10T07:44:00;16.63;;;9.75;;
44480;SDS011;30184;42.018;23.670;2022-10-10T07:46:47;36.92;;;12.35;;
44480;SDS011;30184;42.018;23.670;2022-10-10T07:49:37;14.97;;;7.03;;
44480;SDS011;30184;42.018;23.670;2022-10-10T07:52:16;13.43;;;7.60;;
44480;SDS011;30184;42.018;23.670;2022-10-10T07:55:00;13.52;;;6.15;;
44480;SDS011;30184;42.018;23.670;2022-10-10T07:57:48;13.95;;;7.40;;
44480;SDS011;30184;42.018;23.670;2022-10-10T08:00:33;14.05;;;7.60;;
44480;SDS011;30184;42.018;23.670;2022-10-10T08:03:16;16.85;;;8.27;;
44480;SDS011;30184;42.018;23.670;2022-10-10T08:05:54;15.50;;;9.57;;
44480;SDS011;30184;42.018;23.670;2022-10-10T08:08:39;16.48;;;9.32;;
44480;SDS011;30184;42.018;23.670;2022-10-10T08:11:24;30.33;;;12.27;;
44480;SDS011;30184;42.018;23.670;2022-10-10T08:14:11;15.00;;;7.95;;
44480;SDS011;30184;42.018;23.670;2022-10-10T08:16:55;19.15;;;10.43;;
44480;SDS011;30184;42.018;23.670;2022-10-10T08:22:27;18.80;;;9.85;;
44480;SDS011;30184;42.018;23.670;2022-10-10T08:25:04;18.40;;;9.82;;
44480;SDS011;30184;42.018;23.670;2022-10-10T08:27:47;19.95;;;11.00;;
44480;SDS011;30184;42.018;23.670;2022-10-10T08:30:51;33.03;;;11.55;;
44480;SDS011;30184;42.018;23.670;2022-10-10T08:33:47;27.40;;;8.27;;
44480;SDS011;30184;42.018;23.670;2022-10-10T08:36:26;11.30;;;5.97;;
44480;SDS011;30184;42.018;23.670;2022-10-10T08:39:26;13.05;;;7.63;;
44480;SDS011;30184;42.018;23.670;2022-10-10T08:43:01;13.95;;;7.90;;
44480;SDS011;30184;42.018;23.670;2022-10-10T08:45:49;19.63;;;6.50;;
44480;SDS011;30184;42.018;23.670;2022-10-10T08:48:30;11.23;;;7.25;;
44480;SDS011;30184;42.018;23.670;2022-10-10T08:51:25;15.13;;;7.03;;
44480;SDS011;30184;42.018;23.670;2022-10-10T08:54:32;17.23;;;7.70;;
44480;SDS011;30184;42.018;23.670;2022-10-10T08:57:43;15.48;;;6.43;;
44480;SDS011;30184;42.018;23.670;2022-10-10T09:00:45;15.73;;;6.15;;
44480;SDS011;30184;42.018;23.670;2022-10-10T09:04:27;9.65;;;5.97;;
44480;SDS011;30184;42.018;23.670;2022-10-10T09:11:55;15.57;;;7.83;;
44480;SDS011;30184;42.018;23.670;2022-10-10T09:15:11;12.77;;;6.63;;
44480;SDS011;30184;42.018;23.670;2022-10-10T09:18:51;21.75;;;5.88;;
44480;SDS011;30184;42.018;23.670;2022-10-10T09:22:18;9.50;;;5.20;;
44480;SDS011;30184;42.018;23.670;2022-10-10T09:25:37;13.27;;;5.13;;
44480;SDS011;30184;42.018;23.670;2022-10-10T09:29:11;12.13;;;5.57;;
44480;SDS011;30184;42.018;23.670;2022-10-10T09:32:33;16.60;;;5.95;;
44480;SDS011;30184;42.018;23.670;2022-10-10T09:40:29;10.60;;;4.47;;
44480;SDS011;30184;42.018;23.670;2022-10-10T09:43:56;9.65;;;5.07;;
44480;SDS011;30184;42.018;23.670;2022-10-10T09:47:14;7.18;;;4.72;;
44480;SDS011;30184;42.018;23.670;2022-10-10T09:50:18;14.18;;;5.97;;
44480;SDS011;30184;42.018;23.670;2022-10-10T09:53:34;7.68;;;5.53;;
44480;SDS011;30184;42.018;23.670;2022-10-10T10:00:43;8.75;;;6.10;;
44480;SDS011;30184;42.018;23.670;2022-10-10T10:04:11;12.77;;;6.30;;
44480;SDS011;30184;42.018;23.670;2022-10-10T10:07:16;7.82;;;5.38;;
44480;SDS011;30184;42.018;23.670;2022-10-10T10:13:54;14.02;;;6.63;;
44480;SDS011;30184;42.018;23.670;2022-10-10T10:17:06;10.63;;;5.20;;
44480;SDS011;30184;42.018;23.670;2022-10-10T10:20:11;11.45;;;5.18;;
44480;SDS011;30184;42.018;23.670;2022-10-10T10:23:55;13.85;;;5.65;;
44480;SDS011;30184;42.018;23.670;2022-10-10T10:27:29;9.38;;;5.25;;
44480;SDS011;30184;42.018;23.670;2022-10-10T10:35:23;10.23;;;5.13;;
44480;SDS011;30184;42.018;23.670;2022-10-10T10:42:31;13.48;;;5.68;;
44480;SDS011;30184;42.018;23.670;2022-10-10T10:47:13;14.25;;;6.22;;
44480;SDS011;30184;42.018;23.670;2022-10-10T10:50:32;12.13;;;5.40;;
44480;SDS011;30184;42.018;23.670;2022-10-10T10:54:40;15.00;;;6.32;;
44480;SDS011;30184;42.018;23.670;2022-10-10T11:01:51;12.23;;;5.55;;
44480;SDS011;30184;42.018;23.670;2022-10-10T11:10:43;20.70;;;9.20;;
44480;SDS011;30184;42.018;23.670;2022-10-10T11:14:25;17.48;;;6.05;;
44480;SDS011;30184;42.018;23.670;2022-10-10T11:17:42;11.43;;;6.40;;
44480;SDS011;30184;42.018;23.670;2022-10-10T11:21:11;10.82;;;6.38;;
44480;SDS011;30184;42.018;23.670;2022-10-10T11:32:58;12.48;;;5.30;;
44480;SDS011;30184;42.018;23.670;2022-10-10T11:36:43;14.13;;;5.65;;
44480;SDS011;30184;42.018;23.670;2022-10-10T11:40:38;22.38;;;11.65;;
44480;SDS011;30184;42.018;23.670;2022-10-10T11:44:52;17.98;;;8.93;;
44480;SDS011;30184;42.018;23.670;2022-10-10T11:52:58;9.70;;;5.90;;
44480;SDS011;30184;42.018;23.670;2022-10-10T11:57:07;12.03;;;7.73;;
44480;SDS011;30184;42.018;23.670;2022-10-10T12:05:59;11.70;;;6.10;;
44480;SDS011;30184;42.018;23.670;2022-10-10T12:12:25;10.02;;;5.18;;
44480;SDS011;30184;42.018;23.670;2022-10-10T12:15:36;9.40;;;5.15;;
44480;SDS011;30184;42.018;23.670;2022-10-10T12:19:07;9.77;;;5.60;;
44480;SDS011;30184;42.018;23.670;2022-10-10T12:22:32;17.23;;;5.03;;
44480;SDS011;30184;42.018;23.670;2022-10-10T12:25:40;13.48;;;4.93;;
44480;SDS011;30184;42.018;23.670;2022-10-10T12:29:17;12.40;;;6.05;;
44480;SDS011;30184;42.018;23.670;2022-10-10T12:32:41;13.77;;;5.03;;
44480;SDS011;30184;42.018;23.670;2022-10-10T12:36:52;13.10;;;5.53;;
44480;SDS011;30184;42.018;23.670;2022-10-10T12:41:08;8.82;;;5.10;;
44480;SDS011;30184;42.018;23.670;2022-10-10T12:47:55;7.72;;;5.25;;
44480;SDS011;30184;42.018;23.670;2022-10-10T12:50:58;14.82;;;5.88;;
44480;SDS011;30184;42.018;23.670;2022-10-10T12:54:28;18.02;;;6.65;;
44480;SDS011;30184;42.018;23.670;2022-10-10T12:57:52;15.63;;;5.93;;
44480;SDS011;30184;42.018;23.670;2022-10-10T13:00:57;11.48;;;5.65;;
44480;SDS011;30184;42.018;23.670;2022-10-10T13:03:47;13.07;;;6.55;;
44480;SDS011;30184;42.018;23.670;2022-10-10T13:06:48;10.18;;;6.10;;
44480;SDS011;30184;42.018;23.670;2022-10-10T13:10:07;14.13;;;6.30;;
44480;SDS011;30184;42.018;23.670;2022-10-10T13:13:39;14.07;;;6.13;;
44480;SDS011;30184;42.018;23.670;2022-10-10T13:17:29;14.88;;;7.93;;
44480;SDS011;30184;42.018;23.670;2022-10-10T13:20:33;16.65;;;8.23;;
44480;SDS011;30184;42.018;23.670;2022-10-10T13:23:46;21.75;;;7.93;;
44480;SDS011;30184;42.018;23.670;2022-10-10T13:26:50;15.27;;;7.38;;
44480;SDS011;30184;42.018;23.670;2022-10-10T13:30:15;15.45;;;6.18;;
44480;SDS011;30184;42.018;23.670;2022-10-10T13:33:18;11.02;;;5.82;;
44480;SDS011;30184;42.018;23.670;2022-10-10T13:36:20;13.15;;;5.18;;
44480;SDS011;30184;42.018;23.670;2022-10-10T13:39:18;8.32;;;5.72;;
44480;SDS011;30184;42.018;23.670;2022-10-10T13:42:29;13.20;;;7.10;;
44480;SDS011;30184;42.018;23.670;2022-10-10T13:45:33;10.27;;;6.20;;
44480;SDS011;30184;42.018;23.670;2022-10-10T13:48:28;12.80;;;6.32;;
44480;SDS011;30184;42.018;23.670;2022-10-10T13:52:00;15.10;;;6.18;;
44480;SDS011;30184;42.018;23.670;2022-10-10T13:55:24;19.75;;;7.60;;
44480;SDS011;30184;42.018;23.670;2022-10-10T13:58:23;12.32;;;6.22;;
44480;SDS011;30184;42.018;23.670;2022-10-10T14:01:39;12.70;;;7.20;;
44480;SDS011;30184;42.018;23.670;2022-10-10T14:05:10;14.02;;;7.78;;
44480;SDS011;30184;42.018;23.670;2022-10-10T14:08:15;18.55;;;7.82;;
44480;SDS011;30184;42.018;23.670;2022-10-10T14:11:18;13.30;;;6.82;;
44480;SDS011;30184;42.018;23.670;2022-10-10T14:14:15;14.85;;;7.43;;
44480;SDS011;30184;42.018;23.670;2022-10-10T14:17:28;11.32;;;7.03;;
44480;SDS011;30184;42.018;23.670;2022-10-10T14:20:19;13.05;;;6.75;;
44480;SDS011;30184;42.018;23.670;2022-10-10T14:23:49;11.50;;;6.60;;
44480;SDS011;30184;42.018;23.670;2022-10-10T14:26:58;14.60;;;7.25;;
44480;SDS011;30184;42.018;23.670;2022-10-10T14:30:37;12.07;;;7.80;;
44480;SDS011;30184;42.018;23.670;2022-10-10T14:38:21;16.30;;;7.47;;
44480;SDS011;30184;42.018;23.670;2022-10-10T14:41:40;14.48;;;8.18;;
44480;SDS011;30184;42.018;23.670;2022-10-10T14:45:15;11.60;;;7.28;;
44480;SDS011;30184;42.018;23.670;2022-10-10T14:48:25;12.55;;;7.53;;
44480;SDS011;30184;42.018;23.670;2022-10-10T14:52:11;13.88;;;7.07;;
44480;SDS011;30184;42.018;23.670;2022-10-10T14:55:20;37.25;;;21.05;;
44480;SDS011;30184;42.018;23.670;2022-10-10T14:58:21;23.15;;;10.18;;
44480;SDS011;30184;42.018;23.670;2022-10-10T15:01:23;29.33;;;15.93;;
44480;SDS011;30184;42.018;23.670;2022-10-10T15:04:40;42.25;;;25.45;;
44480;SDS011;30184;42.018;23.670;2022-10-10T15:08:08;39.47;;;23.10;;
44480;SDS011;30184;42.018;23.670;2022-10-10T15:11:21;54.97;;;28.23;;
44480;SDS011;30184;42.018;23.670;2022-10-10T15:14:20;37.95;;;20.27;;
44480;SDS011;30184;42.018;23.670;2022-10-10T15:17:10;27.00;;;17.52;;
44480;SDS011;30184;42.018;23.670;2022-10-10T15:20:22;19.98;;;8.43;;
44480;SDS011;30184;42.018;23.670;2022-10-10T15:27:40;28.42;;;19.58;;
44480;SDS011;30184;42.018;23.670;2022-10-10T15:30:29;29.17;;;20.70;;
44480;SDS011;30184;42.018;23.670;2022-10-10T15:33:39;22.53;;;13.83;;
44480;SDS011;30184;42.018;23.670;2022-10-10T15:36:35;18.13;;;12.30;;
44480;SDS011;30184;42.018;23.670;2022-10-10T15:39:18;20.50;;;10.55;;
44480;SDS011;30184;42.018;23.670;2022-10-10T15:42:29;24.85;;;12.35;;
44480;SDS011;30184;42.018;23.670;2022-10-10T15:45:34;30.30;;;13.93;;
44480;SDS011;30184;42.018;23.670;2022-10-10T15:48:25;34.25;;;16.73;;
44480;SDS011;30184;42.018;23.670;2022-10-10T15:51:10;28.65;;;17.52;;
44480;SDS011;30184;42.018;23.670;2022-10-10T15:54:03;53.63;;;27.35;;
44480;SDS011;30184;42.018;23.670;2022-10-10T15:56:45;30.70;;;17.13;;
44480;SDS011;30184;42.018;23.670;2022-10-10T15:59:30;30.25;;;16.40;;
44480;SDS011;30184;42.018;23.670;2022-10-10T16:02:21;36.22;;;23.10;;
44480;SDS011;30184;42.018;23.670;2022-10-10T16:05:01;44.33;;;25.52;;
44480;SDS011;30184;42.018;23.670;2022-10-10T16:07:59;86.38;;;46.08;;
44480;SDS011;30184;42.018;23.670;2022-10-10T16:10:46;47.20;;;24.27;;
44480;SDS011;30184;42.018;23.670;2022-10-10T16:13:32;126.40;;;63.83;;
44480;SDS011;30184;42.018;23.670;2022-10-10T16:16:48;17.77;;;9.50;;
44480;SDS011;30184;42.018;23.670;2022-10-10T16:19:38;56.67;;;34.85;;
44480;SDS011;30184;42.018;23.670;2022-10-10T16:22:15;54.78;;;34.30;;
44480;SDS011;30184;42.018;23.670;2022-10-10T16:25:17;50.70;;;36.88;;
44480;SDS011;30184;42.018;23.670;2022-10-10T16:28:00;23.80;;;13.93;;
44480;SDS011;30184;42.018;23.670;2022-10-10T16:30:54;26.27;;;16.15;;
44480;SDS011;30184;42.018;23.670;2022-10-10T16:36:50;25.90;;;14.43;;
44480;SDS011;30184;42.018;23.670;2022-10-10T16:39:25;33.00;;;17.20;;
44480;SDS011;30184;42.018;23.670;2022-10-10T16:42:03;67.00;;;36.47;;
44480;SDS011;30184;42.018;23.670;2022-10-10T16:44:51;32.67;;;17.50;;
44480;SDS011;30184;42.018;23.670;2022-10-10T16:47:23;25.63;;;16.23;;
44480;SDS011;30184;42.018;23.670;2022-10-10T16:50:04;39.08;;;24.17;;
44480;SDS011;30184;42.018;23.670;2022-10-10T16:52:40;49.63;;;30.45;;
44480;SDS011;30184;42.018;23.670;2022-10-10T16:55:26;31.33;;;13.95;;
44480;SDS011;30184;42.018;23.670;2022-10-10T16:58:15;73.22;;;36.13;;
44480;SDS011;30184;42.018;23.670;2022-10-10T17:00:54;33.83;;;19.42;;
44480;SDS011;30184;42.018;23.670;2022-10-10T17:03:48;80.97;;;47.35;;
44480;SDS011;30184;42.018;23.670;2022-10-10T17:06:29;52.33;;;31.02;;
44480;SDS011;30184;42.018;23.670;2022-10-10T17:09:11;49.60;;;32.85;;
44480;SDS011;30184;42.018;23.670;2022-10-10T17:12:06;83.28;;;48.03;;
44480;SDS011;30184;42.018;23.670;2022-10-10T17:14:45;79.22;;;43.75;;
44480;SDS011;30184;42.018;23.670;2022-10-10T17:17:26;67.72;;;38.97;;
44480;SDS011;30184;42.018;23.670;2022-10-10T17:20:16;71.30;;;40.63;;
44480;SDS011;30184;42.018;23.670;2022-10-10T17:26:23;63.35;;;39.17;;
44480;SDS011;30184;42.018;23.670;2022-10-10T17:29:29;67.10;;;41.47;;
44480;SDS011;30184;42.018;23.670;2022-10-10T17:32:12;49.05;;;28.55;;
44480;SDS011;30184;42.018;23.670;2022-10-10T17:35:10;45.10;;;32.55;;
44480;SDS011;30184;42.018;23.670;2022-10-10T17:41:37;72.40;;;44.88;;
44480;SDS011;30184;42.018;23.670;2022-10-10T17:44:23;46.63;;;33.45;;
44480;SDS011;30184;42.018;23.670;2022-10-10T17:47:29;53.25;;;35.25;;
44480;SDS011;30184;42.018;23.670;2022-10-10T17:50:17;81.97;;;36.45;;
44480;SDS011;30184;42.018;23.670;2022-10-10T17:53:19;82.60;;;39.55;;
44480;SDS011;30184;42.018;23.670;2022-10-10T17:56:25;66.63;;;33.85;;
44480;SDS011;30184;42.018;23.670;2022-10-10T20:00:02;53.53;;;38.38;;
44480;SDS011;30184;42.018;23.670;2022-10-10T20:02:37;66.00;;;41.40;;
44480;SDS011;30184;42.018;23.670;2022-10-10T20:05:07;80.18;;;47.80;;
44480;SDS011;30184;42.018;23.670;2022-10-10T20:07:37;73.53;;;51.33;;
44480;SDS011;30184;42.018;23.670;2022-10-10T20:10:07;65.47;;;42.05;;
44480;SDS011;30184;42.018;23.670;2022-10-10T20:12:36;51.67;;;38.80;;
44480;SDS011;30184;42.018;23.670;2022-10-10T20:15:08;53.50;;;35.15;;
44480;SDS011;30184;42.018;23.670;2022-10-10T20:17:38;44.15;;;28.83;;
44480;SDS011;30184;42.018;23.670;2022-10-10T20:20:07;45.88;;;32.40;;
44480;SDS011;30184;42.018;23.670;2022-10-10T20:22:37;60.03;;;37.83;;
44480;SDS011;30184;42.018;23.670;2022-10-10T20:25:08;68.10;;;39.92;;
44480;SDS011;30184;42.018;23.670;2022-10-10T20:27:38;59.05;;;36.85;;
44480;SDS011;30184;42.018;23.670;2022-10-10T20:30:09;56.20;;;33.15;;